Time;durP1;ratioP1;P1;durP2;ratioP2;P2;SDS_P1;SDS_P2;PMS_P1;PMS_P2;Temp;Humidity;BMP_temperature;BMP_pressure;BME280_temperature;BME280_humidity;BME280_pressure;Samples;Min_cycle;Max_cycle;Signal;HPM_P1;HPM_P2
2021/07/31 00:01:38;;;;;;;16.00;10.10;;;717.50;1715.20;;;;;;5034923;28;20604;-78
2021/07/31 00:04:07;;;;;;;15.40;9.57;;;717.40;1740.80;;;;;;5036513;28;20022;-76
2021/07/31 00:06:33;;;;;;;15.60;10.98;;;717.40;1715.20;;;;;;5036337;28;20396;-77
2021/07/31 00:08:59;;;;;;;13.25;10.00;;;717.30;1715.20;;;;;;5036207;28;20026;-76
2021/07/31 00:11:25;;;;;;;12.70;10.15;;;717.30;1715.20;;;;;;5036286;28;20052;-74
2021/07/31 00:13:51;;;;;;;16.17;10.60;;;717.30;1766.40;;;;;;5035199;28;20027;-76
2021/07/31 00:16:17;;;;;;;16.30;10.60;;;717.30;1766.40;;;;;;5035265;28;20392;-77
2021/07/31 00:18:42;;;;;;;12.65;10.90;;;717.30;1766.40;;;;;;5034382;28;20508;-77
2021/07/31 00:21:08;;;;;;;15.52;10.48;;;717.30;1766.40;;;;;;5035712;28;20022;-79
2021/07/31 00:23:34;;;;;;;17.58;11.98;;;717.30;1766.40;;;;;;5039403;28;20072;-77
2021/07/31 00:26:00;;;;;;;14.70;10.30;;;717.30;1766.40;;;;;;5050650;28;20362;-77
2021/07/31 00:28:26;;;;;;;13.23;9.93;;;717.20;1766.40;;;;;;5035895;28;20109;-78
2021/07/31 00:30:52;;;;;;;12.93;9.30;;;717.30;1766.40;;;;;;5034474;28;20083;-76
2021/07/31 00:33:18;;;;;;;12.80;10.68;;;717.20;1792.00;;;;;;5034226;28;20504;-76
2021/07/31 00:35:44;;;;;;;17.45;10.93;;;717.30;1792.00;;;;;;5035543;28;20026;-78
2021/07/31 00:38:10;;;;;;;17.48;10.38;;;717.30;1792.00;;;;;;5035631;28;20092;-77
2021/07/31 00:40:36;;;;;;;17.23;10.45;;;717.30;1792.00;;;;;;5034239;28;20111;-76
2021/07/31 00:43:09;;;;;;;14.88;10.52;;;717.20;1792.00;;;;;;5035992;28;20031;-77
2021/07/31 00:45:35;;;;;;;12.30;10.43;;;717.20;1740.80;;;;;;5036016;28;20053;-77
2021/07/31 00:48:02;;;;;;;17.00;10.23;;;717.20;1740.80;;;;;;5036589;28;20036;-77
2021/07/31 00:50:31;;;;;;;12.80;10.55;;;717.20;1740.80;;;;;;5037777;28;20041;-78
2021/07/31 00:52:57;;;;;;;15.52;10.20;;;717.20;1740.80;;;;;;5048365;28;20048;-77
2021/07/31 00:55:24;;;;;;;13.50;9.93;;;717.20;1740.80;;;;;;5037676;28;20026;-76
2021/07/31 00:57:50;;;;;;;13.57;11.40;;;717.10;1740.80;;;;;;5038570;28;20025;-76
2021/07/31 01:00:16;;;;;;;13.52;10.65;;;717.10;1740.80;;;;;;5044914;28;20030;-76
2021/07/31 01:02:42;;;;;;;18.27;10.90;;;717.10;1792.00;;;;;;5050305;28;20041;-78
2021/07/31 01:05:08;;;;;;;17.15;11.52;;;717.10;1766.40;;;;;;5047358;28;20037;-78
2021/07/31 01:07:35;;;;;;;14.00;9.88;;;717.10;1792.00;;;;;;5041261;28;20063;-76
2021/07/31 01:10:02;;;;;;;13.85;11.25;;;716.90;1792.00;;;;;;5043528;28;20018;-76
2021/07/31 01:12:29;;;;;;;18.48;10.65;;;716.90;1792.00;;;;;;5046024;28;20029;-79
2021/07/31 01:14:54;;;;;;;19.10;11.23;;;716.90;1766.40;;;;;;5049555;28;20040;-78
2021/07/31 01:17:20;;;;;;;14.60;11.30;;;716.80;1766.40;;;;;;5051744;28;20034;-77
2021/07/31 01:19:48;;;;;;;18.65;11.80;;;716.80;1766.40;;;;;;5050024;28;20499;-76
2021/07/31 01:22:14;;;;;;;18.65;11.77;;;716.80;1792.00;;;;;;5041583;28;20033;-77
2021/07/31 01:24:39;;;;;;;16.42;10.90;;;716.80;1792.00;;;;;;5043437;28;20503;-77
2021/07/31 01:27:05;;;;;;;16.58;10.50;;;692.10;1766.40;;;;;;5041512;28;20075;-77
2021/07/31 01:29:31;;;;;;;17.08;11.52;;;692.10;1817.60;;;;;;5060708;28;20096;-77
2021/07/31 01:31:57;;;;;;;21.70;12.52;;;692.10;1817.60;;;;;;5045167;28;20033;-77
2021/07/31 01:34:23;;;;;;;20.13;12.73;;;692.00;1766.40;;;;;;5039627;28;20037;-76
2021/07/31 01:36:49;;;;;;;15.80;11.73;;;692.00;1792.00;;;;;;5034757;28;20033;-77
2021/07/31 01:39:15;;;;;;;12.70;10.90;;;692.00;1792.00;;;;;;5053687;28;20473;-78
2021/07/31 01:41:41;;;;;;;14.77;11.10;;;691.90;1792.00;;;;;;5052930;28;20032;-77
2021/07/31 01:44:07;;;;;;;15.57;11.57;;;691.90;1817.60;;;;;;5054662;28;20106;-77
2021/07/31 01:46:33;;;;;;;12.93;11.52;;;691.90;1792.00;;;;;;5053894;28;20461;-76
2021/07/31 01:48:59;;;;;;;13.23;11.25;;;691.90;1817.60;;;;;;5052817;28;20396;-76
2021/07/31 01:51:24;;;;;;;15.82;11.35;;;691.70;1817.60;;;;;;5053047;28;20029;-78
2021/07/31 01:53:50;;;;;;;14.27;11.65;;;691.80;1817.60;;;;;;5037813;28;20025;-77
2021/07/31 01:56:16;;;;;;;14.25;10.68;;;691.70;1843.20;;;;;;5035516;28;20491;-77
2021/07/31 01:58:42;;;;;;;13.57;11.25;;;691.70;1843.20;;;;;;5034400;28;20033;-78
2021/07/31 02:01:07;;;;;;;19.92;13.27;;;691.70;1843.20;;;;;;5034023;28;20025;-78
2021/07/31 02:03:33;;;;;;;15.13;12.00;;;691.70;1843.20;;;;;;5049107;28;20469;-77
2021/07/31 02:05:59;;;;;;;15.68;12.15;;;691.70;1843.20;;;;;;5052617;28;20021;-77
2021/07/31 02:08:25;;;;;;;13.23;11.02;;;691.70;1868.80;;;;;;5053990;28;20120;-77
2021/07/31 02:10:51;;;;;;;14.23;12.68;;;691.60;1868.80;;;;;;5037180;28;20056;-77
2021/07/31 02:13:17;;;;;;;17.20;12.35;;;691.60;1868.80;;;;;;5033968;28;20057;-76
2021/07/31 02:15:44;;;;;;;17.70;12.07;;;691.50;1843.20;;;;;;5034021;28;20053;-77
2021/07/31 02:18:11;;;;;;;15.48;11.43;;;691.30;1868.80;;;;;;5033780;28;20022;-76
2021/07/31 02:20:38;;;;;;;14.93;11.70;;;691.20;1868.80;;;;;;5032668;28;20025;-75
2021/07/31 02:23:04;;;;;;;16.83;12.82;;;691.30;1894.40;;;;;;5033721;28;20018;-76
2021/07/31 02:25:30;;;;;;;15.25;11.57;;;666.50;1894.40;;;;;;5038673;28;20114;-77
2021/07/31 02:27:56;;;;;;;13.32;11.82;;;666.50;1894.40;;;;;;5045843;28;20049;-77
2021/07/31 02:30:23;;;;;;;16.98;11.60;;;666.40;1920.00;;;;;;5053405;28;20032;-76
2021/07/31 02:32:48;;;;;;;14.82;11.82;;;666.00;1920.00;;;;;;5052152;28;20040;-77
2021/07/31 02:35:14;;;;;;;18.48;12.65;;;666.20;1945.60;;;;;;5053448;28;20028;-77
2021/07/31 02:37:41;;;;;;;16.67;11.90;;;666.20;1971.20;;;;;;5053674;28;20024;-76
2021/07/31 02:40:07;;;;;;;18.90;11.55;;;666.20;1945.60;;;;;;5036363;28;20381;-76
2021/07/31 02:42:33;;;;;;;13.77;11.90;;;666.20;1971.20;;;;;;5031851;28;20040;-77
2021/07/31 02:45:01;;;;;;;16.20;11.90;;;666.20;1971.20;;;;;;5033688;28;20379;-77
2021/07/31 02:47:27;;;;;;;14.52;13.05;;;666.30;1971.20;;;;;;5033246;28;20030;-77
2021/07/31 02:49:53;;;;;;;21.98;12.73;;;666.20;1971.20;;;;;;5033546;28;20017;-77
2021/07/31 02:52:19;;;;;;;15.75;13.23;;;666.20;1971.20;;;;;;5033547;28;20087;-77
2021/07/31 02:54:45;;;;;;;16.83;13.57;;;666.30;1971.20;;;;;;5033462;28;20025;-77
2021/07/31 02:57:11;;;;;;;17.52;12.57;;;666.30;1971.20;;;;;;5034738;28;20025;-77
2021/07/31 02:59:37;;;;;;;16.92;12.68;;;666.20;1996.80;;;;;;5036222;28;20535;-77
2021/07/31 03:02:03;;;;;;;18.90;13.32;;;666.20;1996.80;;;;;;5037582;28;20057;-76
2021/07/31 03:04:29;;;;;;;15.75;11.93;;;666.30;1996.80;;;;;;5036279;28;20025;-76
2021/07/31 03:06:55;;;;;;;21.50;14.15;;;666.30;1996.80;;;;;;5035971;28;20030;-77
2021/07/31 03:09:20;;;;;;;16.30;13.45;;;666.30;1996.80;;;;;;5037190;28;20029;-76
2021/07/31 03:11:46;;;;;;;18.60;13.38;;;666.30;1996.80;;;;;;5037168;28;20044;-77
2021/07/31 03:14:13;;;;;;;15.07;11.75;;;666.30;1996.80;;;;;;5035571;28;20029;-77
2021/07/31 03:16:39;;;;;;;19.55;14.88;;;666.40;1996.80;;;;;;5036818;28;20473;-77
2021/07/31 03:19:05;;;;;;;18.65;13.57;;;666.40;1996.80;;;;;;5041715;28;20085;-78
2021/07/31 03:21:31;;;;;;;14.63;12.18;;;666.30;1996.80;;;;;;5057205;28;20048;-77
2021/07/31 03:23:57;;;;;;;17.88;13.27;;;666.30;1996.80;;;;;;5055893;28;20083;-77
2021/07/31 03:26:22;;;;;;;19.02;13.18;;;666.20;1996.80;;;;;;5057040;28;20140;-77
2021/07/31 03:28:48;;;;;;;19.63;13.88;;;666.20;2022.40;;;;;;5056863;28;20564;-77
2021/07/31 03:31:21;;;;;;;16.13;14.43;;;666.30;2022.40;;;;;;5056889;28;20036;-77
2021/07/31 03:33:48;;;;;;;18.88;13.23;;;666.20;2048.00;;;;;;5056887;28;20075;-76
2021/07/31 03:36:14;;;;;;;21.85;13.30;;;666.10;2048.00;;;;;;5056708;28;20017;-77
2021/07/31 03:38:40;;;;;;;17.00;13.07;;;666.10;2048.00;;;;;;5056808;28;20051;-77
2021/07/31 03:41:05;;;;;;;18.58;12.68;;;666.00;2073.60;;;;;;5056831;28;20048;-76
2021/07/31 03:43:31;;;;;;;19.02;14.68;;;666.10;2099.20;;;;;;5045667;28;20474;-77
2021/07/31 03:45:57;;;;;;;17.73;13.82;;;665.70;2150.40;;;;;;5035386;28;20030;-76
2021/07/31 03:48:22;;;;;;;20.38;13.35;;;665.80;2150.40;;;;;;5039262;28;20019;-76
2021/07/31 03:50:48;;;;;;;19.75;15.02;;;665.80;2150.40;;;;;;5056366;28;20491;-78
2021/07/31 03:53:14;;;;;;;21.70;14.30;;;665.80;2150.40;;;;;;5056390;28;20388;-77
2021/07/31 03:55:47;;;;;;;18.98;14.43;;;665.80;2150.40;;;;;;5056493;28;20029;-75
2021/07/31 03:58:13;;;;;;;20.17;14.65;;;665.90;2150.40;;;;;;5046540;28;20022;-75
2021/07/31 04:00:40;;;;;;;20.27;13.98;;;665.80;2150.40;;;;;;5055411;28;20060;-77
2021/07/31 04:03:07;;;;;;;23.05;14.80;;;665.80;2176.00;;;;;;5054923;28;20036;-77
2021/07/31 04:05:33;;;;;;;17.27;14.02;;;665.70;2201.60;;;;;;5056393;28;20427;-77
2021/07/31 04:07:59;;;;;;;18.50;15.75;;;640.90;2176.00;;;;;;5039899;28;20021;-78
2021/07/31 04:10:24;;;;;;;18.35;13.93;;;640.70;2176.00;;;;;;5035205;28;20064;-77
2021/07/31 04:12:50;;;;;;;20.02;13.85;;;640.70;2176.00;;;;;;5034614;28;20450;-77
2021/07/31 04:15:16;;;;;;;25.63;15.60;;;640.70;2176.00;;;;;;5036263;28;20100;-77
2021/07/31 04:17:42;;;;;;;27.05;16.20;;;640.70;2176.00;;;;;;5041109;28;20025;-77
2021/07/31 04:20:08;;;;;;;21.92;15.88;;;640.70;2176.00;;;;;;5035828;28;20033;-76
2021/07/31 04:22:34;;;;;;;22.15;15.32;;;640.70;2176.00;;;;;;5035973;28;20079;-77
2021/07/31 04:25:00;;;;;;;20.15;16.08;;;640.70;2201.60;;;;;;5034861;28;20022;-77
2021/07/31 04:27:26;;;;;;;30.00;19.55;;;640.70;2201.60;;;;;;5035619;28;20044;-77
2021/07/31 04:29:52;;;;;;;28.50;17.52;;;640.50;2227.20;;;;;;5035809;28;20014;-76
2021/07/31 04:32:17;;;;;;;27.02;17.02;;;640.50;2278.40;;;;;;5034290;28;20042;-76
2021/07/31 04:34:43;;;;;;;20.20;15.18;;;640.50;2252.80;;;;;;5034345;28;20018;-77
2021/07/31 04:37:09;;;;;;;23.10;16.13;;;640.40;2304.00;;;;;;5035760;28;20056;-77
2021/07/31 04:39:37;;;;;;;24.58;15.55;;;640.30;2278.40;;;;;;5035670;28;20018;-77
2021/07/31 04:42:03;;;;;;;18.67;15.82;;;640.20;2355.20;;;;;;5035668;28;20120;-78
2021/07/31 04:44:29;;;;;;;21.95;16.00;;;640.20;2355.20;;;;;;5035517;28;20076;-78
2021/07/31 04:46:55;;;;;;;27.83;16.80;;;640.50;2355.20;;;;;;5035595;28;20481;-78
2021/07/31 04:49:20;;;;;;;20.90;15.50;;;640.30;2355.20;;;;;;5034148;28;20083;-78
2021/07/31 04:51:46;;;;;;;29.42;15.55;;;640.40;2329.60;;;;;;5035426;28;20057;-78
2021/07/31 04:54:12;;;;;;;21.92;16.15;;;640.40;2329.60;;;;;;5034056;28;20021;-76
2021/07/31 04:56:38;;;;;;;25.10;16.38;;;640.40;2329.60;;;;;;5034279;28;20079;-77
2021/07/31 04:59:04;;;;;;;18.73;15.43;;;640.40;2304.00;;;;;;5035590;28;20104;-77
2021/07/31 05:01:30;;;;;;;24.92;16.17;;;640.40;2304.00;;;;;;5035319;28;20087;-79
2021/07/31 05:03:56;;;;;;;23.65;16.90;;;640.40;2304.00;;;;;;5034351;28;20073;-77
2021/07/31 05:06:22;;;;;;;21.17;16.25;;;640.40;2304.00;;;;;;5035507;28;20021;-77
2021/07/31 05:08:49;;;;;;;26.45;17.60;;;640.40;2304.00;;;;;;5035070;28;20104;-77
2021/07/31 05:11:15;;;;;;;25.58;16.73;;;640.40;2304.00;;;;;;5038119;28;20032;-75
2021/07/31 05:13:41;;;;;;;22.60;16.48;;;640.40;2304.00;;;;;;5053051;28;20054;-76
2021/07/31 05:16:07;;;;;;;23.40;17.27;;;640.50;2304.00;;;;;;5076961;28;20032;-77
2021/07/31 05:18:32;;;;;;;28.55;17.05;;;640.60;2304.00;;;;;;5063587;28;20041;-78
2021/07/31 05:20:59;;;;;;;30.60;18.20;;;640.70;2304.00;;;;;;5055281;28;20025;-77
2021/07/31 05:23:25;;;;;;;28.25;19.27;;;640.70;2278.40;;;;;;5066328;28;20017;-78
2021/07/31 05:25:51;;;;;;;27.92;18.90;;;640.70;2278.40;;;;;;5052557;28;20032;-75
2021/07/31 05:28:16;;;;;;;21.48;17.38;;;640.70;2278.40;;;;;;5038248;28;20485;-75
2021/07/31 05:30:43;;;;;;;22.40;17.52;;;640.80;2304.00;;;;;;5044646;28;20032;-78
2021/07/31 05:33:10;;;;;;;30.65;18.38;;;640.90;2278.40;;;;;;5043297;28;20049;-78
2021/07/31 05:35:35;;;;;;;29.20;17.70;;;665.70;2278.40;;;;;;5044505;28;20029;-76
2021/07/31 05:38:02;;;;;;;20.25;16.55;;;665.80;2252.80;;;;;;5045669;28;20033;-77
2021/07/31 05:40:28;;;;;;;21.48;17.75;;;665.90;2252.80;;;;;;5044913;28;20057;-76
2021/07/31 05:42:54;;;;;;;22.00;17.75;;;666.10;2227.20;;;;;;5041649;28;20026;-77
2021/07/31 05:45:19;;;;;;;20.92;16.83;;;666.20;2176.00;;;;;;5039290;28;20071;-78
2021/07/31 05:47:45;;;;;;;18.13;14.98;;;666.30;2150.40;;;;;;5044420;28;20065;-80
2021/07/31 05:50:12;;;;;;;21.15;15.27;;;666.40;2124.80;;;;;;5064306;28;20056;-77
2021/07/31 05:52:39;;;;;;;18.13;15.30;;;666.50;2099.20;;;;;;5053672;28;20034;-76
2021/07/31 05:55:06;;;;;;;16.85;15.15;;;691.30;2073.60;;;;;;5042631;28;20022;-80
2021/07/31 05:57:33;;;;;;;23.13;16.38;;;691.40;2022.40;;;;;;5047717;28;20026;-78
2021/07/31 05:59:58;;;;;;;19.48;15.45;;;691.60;2073.60;;;;;;5041025;28;20112;-78
2021/07/31 06:02:24;;;;;;;21.20;14.57;;;691.70;2073.60;;;;;;5040331;28;20123;-78
2021/07/31 06:04:50;;;;;;;23.83;15.27;;;691.70;2048.00;;;;;;5054512;28;20028;-77
2021/07/31 06:07:16;;;;;;;21.88;14.27;;;691.80;2022.40;;;;;;5048342;28;20510;-76
2021/07/31 06:09:42;;;;;;;21.85;15.27;;;691.80;1996.80;;;;;;5041510;28;20026;-75
2021/07/31 06:12:10;;;;;;;19.40;14.73;;;691.90;1996.80;;;;;;5034864;28;20039;-79
2021/07/31 06:14:38;;;;;;;20.77;14.15;;;691.90;2022.40;;;;;;5060543;28;20472;-78
2021/07/31 06:17:05;;;;;;;22.90;15.75;;;692.10;2048.00;;;;;;5040941;28;20432;-77
2021/07/31 06:19:32;;;;;;;19.67;14.45;;;716.80;2048.00;;;;;;5049517;28;20021;-79
2021/07/31 06:21:59;;;;;;;22.42;15.73;;;716.90;2022.40;;;;;;5046066;28;20033;-77
2021/07/31 06:24:25;;;;;;;19.50;14.50;;;717.00;1996.80;;;;;;5032661;28;20444;-79
2021/07/31 06:26:52;;;;;;;23.35;15.27;;;717.10;1996.80;;;;;;5032620;28;20041;-77
2021/07/31 06:29:19;;;;;;;22.17;14.55;;;717.20;1971.20;;;;;;5033417;28;20045;-79
2021/07/31 06:31:45;;;;;;;20.67;13.00;;;717.20;1945.60;;;;;;5051910;28;20053;-78
2021/07/31 06:34:11;;;;;;;19.23;13.30;;;717.30;1945.60;;;;;;5035107;28;20079;-77
2021/07/31 06:36:37;;;;;;;25.60;15.05;;;717.30;1945.60;;;;;;5033603;28;20029;-76
2021/07/31 06:39:04;;;;;;;22.27;15.23;;;717.30;1945.60;;;;;;5044142;28;20017;-78
2021/07/31 06:41:30;;;;;;;18.77;15.07;;;717.50;1971.20;;;;;;5037482;28;20040;-76
2021/07/31 06:43:57;;;;;;;19.80;14.82;;;717.60;1945.60;;;;;;5032804;28;20033;-76
2021/07/31 06:46:24;;;;;;;21.55;15.52;;;717.70;1894.40;;;;;;5033701;28;20044;-76
2021/07/31 06:48:53;;;;;;;26.50;16.00;;;742.50;1920.00;;;;;;5027190;28;20025;-76
2021/07/31 06:51:19;;;;;;;22.27;15.90;;;742.60;1894.40;;;;;;5022402;28;20034;-76
2021/07/31 06:53:46;;;;;;;24.75;16.48;;;742.70;1920.00;;;;;;5032083;28;20037;-78
2021/07/31 06:56:12;;;;;;;25.00;16.00;;;742.80;1894.40;;;;;;5033856;28;20025;-77
2021/07/31 06:58:37;;;;;;;23.02;16.48;;;742.90;1894.40;;;;;;5042197;28;20028;-77
2021/07/31 07:01:08;;;;;;;24.85;16.85;;;742.90;1868.80;;;;;;5053308;28;20025;-79
2021/07/31 07:03:34;;;;;;;20.50;15.02;;;743.00;1868.80;;;;;;5052158;28;20025;-77
2021/07/31 07:06:06;;;;;;;22.52;15.82;;;743.10;1868.80;;;;;;5053592;28;20483;-77
2021/07/31 07:08:32;;;;;;;20.23;15.85;;;743.20;1843.20;;;;;;5042762;28;20473;-79
2021/07/31 07:10:59;;;;;;;24.77;15.18;;;743.20;1868.80;;;;;;5055064;28;20075;-79
2021/07/31 07:13:24;;;;;;;24.13;15.13;;;743.30;1843.20;;;;;;5052416;28;20059;-74
2021/07/31 07:15:50;;;;;;;22.80;14.93;;;768.10;1817.60;;;;;;5052732;28;20021;-75
2021/07/31 07:18:16;;;;;;;24.60;16.33;;;768.10;1792.00;;;;;;5045036;28;20057;-76
2021/07/31 07:20:42;;;;;;;23.63;15.15;;;768.20;1766.40;;;;;;5034396;28;20018;-75
2021/07/31 07:23:08;;;;;;;26.02;16.23;;;768.30;1715.20;;;;;;5032688;28;20029;-78
2021/07/31 07:25:34;;;;;;;17.77;13.32;;;768.40;1715.20;;;;;;5037645;28;20025;-77
2021/07/31 07:28:01;;;;;;;25.75;14.88;;;768.60;1766.40;;;;;;5033339;28;20120;-77
2021/07/31 07:30:28;;;;;;;20.30;13.65;;;768.80;1766.40;;;;;;5031644;28;20048;-77
2021/07/31 07:32:54;;;;;;;25.85;14.55;;;768.90;1689.60;;;;;;5032962;28;20045;-76
2021/07/31 07:35:20;;;;;;;20.67;14.13;;;768.90;1715.20;;;;;;5032013;28;20028;-77
2021/07/31 07:37:46;;;;;;;21.05;14.77;;;793.70;1792.00;;;;;;5032834;28;20030;-77
2021/07/31 07:40:12;;;;;;;23.38;15.68;;;793.70;1715.20;;;;;;5033142;28;20028;-77
2021/07/31 07:42:39;;;;;;;27.48;14.25;;;793.90;1715.20;;;;;;5031624;28;20076;-77
2021/07/31 07:45:07;;;;;;;20.42;15.13;;;794.10;1715.20;;;;;;5033588;28;20092;-75
2021/07/31 07:47:33;;;;;;;24.88;14.55;;;794.20;1664.00;;;;;;5055624;28;20044;-76
2021/07/31 07:50:03;;;;;;;22.77;15.55;;;794.30;1664.00;;;;;;5039260;28;20029;-80
2021/07/31 07:52:29;;;;;;;21.52;12.82;;;794.50;1638.40;;;;;;5036045;28;20378;-78
2021/07/31 07:54:55;;;;;;;21.42;13.50;;;794.50;1638.40;;;;;;5035800;28;20041;-79
2021/07/31 07:57:21;;;;;;;23.20;13.45;;;794.50;1612.80;;;;;;5035618;28;20030;-79
2021/07/31 07:59:46;;;;;;;20.55;12.98;;;819.30;1612.80;;;;;;5035403;28;20450;-76
2021/07/31 08:02:12;;;;;;;21.42;13.30;;;819.30;1587.20;;;;;;5035757;28;20037;-78
2021/07/31 08:04:38;;;;;;;22.83;13.68;;;819.30;1587.20;;;;;;5035420;28;20457;-77
2021/07/31 08:07:04;;;;;;;23.52;13.93;;;819.40;1587.20;;;;;;5034982;28;20033;-76
2021/07/31 08:09:30;;;;;;;20.40;13.15;;;819.60;1587.20;;;;;;5054939;28;20521;-76
2021/07/31 08:11:56;;;;;;;18.08;11.70;;;819.80;1561.60;;;;;;5054590;28;20025;-76
2021/07/31 08:14:22;;;;;;;16.25;11.40;;;819.90;1510.40;;;;;;5041838;28;20025;-78
2021/07/31 08:16:47;;;;;;;21.63;12.77;;;820.10;1510.40;;;;;;5045073;28;20029;-78
2021/07/31 08:19:13;;;;;;;23.95;13.23;;;844.80;1536.00;;;;;;5045052;28;20045;-76
2021/07/31 08:21:40;;;;;;;17.45;11.90;;;845.00;1510.40;;;;;;5036567;28;20021;-79
2021/07/31 08:24:07;;;;;;;18.75;12.63;;;845.10;1484.80;;;;;;5040917;28;20022;-77
2021/07/31 08:26:33;;;;;;;17.40;11.75;;;845.20;1484.80;;;;;;5046299;28;20042;-76
2021/07/31 08:28:59;;;;;;;20.67;12.23;;;845.40;1433.60;;;;;;5040070;28;20068;-77
2021/07/31 08:31:25;;;;;;;13.05;10.07;;;845.70;1433.60;;;;;;5045737;28;20095;-76
2021/07/31 08:33:56;;;;;;;18.20;10.25;;;870.40;1382.40;;;;;;5042948;28;20469;-77
2021/07/31 08:36:23;;;;;;;15.93;9.77;;;870.50;1331.20;;;;;;5045503;28;20146;-76
2021/07/31 08:38:49;;;;;;;13.20;8.70;;;870.50;1305.60;;;;;;5034034;28;20037;-79
2021/07/31 08:41:15;;;;;;;11.43;8.80;;;870.80;1280.00;;;;;;5033241;28;20072;-77
2021/07/31 08:43:40;;;;;;;14.10;8.23;;;870.80;1228.80;;;;;;5035922;28;20033;-77
2021/07/31 08:46:08;;;;;;;12.07;8.70;;;870.90;1254.40;;;;;;5035566;28;20032;-78
2021/07/31 08:48:34;;;;;;;9.90;8.23;;;871.00;1228.80;;;;;;5035624;28;20029;-76
2021/07/31 08:51:02;;;;;;;11.80;9.07;;;871.00;1203.20;;;;;;5034686;28;20381;-77
2021/07/31 08:53:30;;;;;;;15.85;8.43;;;871.10;1203.20;;;;;;5037989;28;20048;-77
2021/07/31 08:55:56;;;;;;;13.98;9.55;;;871.30;1203.20;;;;;;5034640;28;20027;-78
2021/07/31 08:58:24;;;;;;;11.32;7.65;;;896.00;1177.60;;;;;;5033400;28;20485;-79
2021/07/31 09:00:53;;;;;;;12.23;8.88;;;896.00;1152.00;;;;;;5034548;28;20032;-78
2021/07/31 09:03:19;;;;;;;10.35;7.15;;;896.00;1177.60;;;;;;5034953;28;20057;-78
2021/07/31 09:05:45;;;;;;;10.05;8.07;;;896.10;1100.80;;;;;;5035819;28;20102;-78
2021/07/31 09:08:11;;;;;;;9.60;7.15;;;896.20;1126.40;;;;;;5035421;28;20510;-78
2021/07/31 09:10:42;;;;;;;12.77;9.00;;;896.40;1152.00;;;;;;5035292;28;20018;-78
2021/07/31 09:13:16;;;;;;;10.73;8.13;;;896.40;1203.20;;;;;;5035064;28;20040;-78
2021/07/31 09:15:46;;;;;;;13.70;8.20;;;896.60;1152.00;;;;;;5033634;28;20017;-76
2021/07/31 09:18:31;;;;;;;12.45;8.13;;;896.70;1152.00;;;;;;5033736;28;20104;-82
2021/07/31 09:21:09;;;;;;;14.13;7.88;;;896.90;1177.60;;;;;;5026112;28;20363;-77
2021/07/31 09:23:48;;;;;;;13.13;8.38;;;921.60;1177.60;;;;;;5034378;28;20068;-78
2021/07/31 09:26:16;;;;;;;11.05;8.90;;;921.70;1177.60;;;;;;5034509;28;20037;-78
2021/07/31 09:28:43;;;;;;;10.57;7.60;;;921.90;1177.60;;;;;;5035008;28;20097;-77
2021/07/31 09:31:17;;;;;;;14.05;8.57;;;922.00;1126.40;;;;;;5038286;28;20044;-77
2021/07/31 09:33:48;;;;;;;13.18;8.43;;;922.10;1177.60;;;;;;5036503;28;20033;-76
2021/07/31 09:36:15;;;;;;;8.57;7.68;;;922.30;1100.80;;;;;;5034503;28;20091;-78
2021/07/31 09:38:46;;;;;;;10.77;7.55;;;922.40;1126.40;;;;;;5033946;28;20025;-77
2021/07/31 09:41:26;;;;;;;10.57;7.13;;;922.50;1100.80;;;;;;5034265;28;20108;-78
2021/07/31 09:44:05;;;;;;;10.10;7.50;;;922.50;1075.20;;;;;;5034574;28;20109;-78
2021/07/31 09:46:45;;;;;;;9.55;8.07;;;947.20;1075.20;;;;;;5034454;28;20104;-78
2021/07/31 09:49:20;;;;;;;13.68;7.90;;;947.50;1075.20;;;;;;5034424;28;20103;-75
2021/07/31 09:51:48;;;;;;;9.80;8.35;;;947.60;1049.60;;;;;;5034447;28;20029;-77
2021/07/31 09:54:16;;;;;;;9.93;8.07;;;947.60;1152.00;;;;;;5034325;28;20040;-78
2021/07/31 09:56:50;;;;;;;12.40;7.75;;;947.70;1126.40;;;;;;5037660;28;20487;-78
2021/07/31 09:59:17;;;;;;;9.90;7.72;;;947.80;1075.20;;;;;;5034066;28;20030;-77
2021/07/31 10:02:03;;;;;;;8.15;7.35;;;947.80;1024.00;;;;;;5037300;28;20076;-77
2021/07/31 10:04:31;;;;;;;12.10;8.05;;;947.90;1049.60;;;;;;5042536;28;20018;-77
2021/07/31 10:07:02;;;;;;;10.73;7.95;;;948.00;1024.00;;;;;;5041894;28;20048;-76
2021/07/31 10:09:31;;;;;;;9.23;7.28;;;972.80;1075.20;;;;;;5042973;28;20029;-77
2021/07/31 10:11:58;;;;;;;10.90;6.57;;;972.80;1024.00;;;;;;5042839;28;20388;-77
2021/07/31 10:14:24;;;;;;;11.20;7.22;;;973.10;1075.20;;;;;;5042851;28;20033;-78
2021/07/31 10:16:51;;;;;;;9.82;7.13;;;973.20;1075.20;;;;;;5042376;28;20423;-77
2021/07/31 10:19:18;;;;;;;9.88;7.10;;;973.20;998.40;;;;;;5051694;28;20111;-78
2021/07/31 10:21:58;;;;;;;11.63;7.20;;;973.10;998.40;;;;;;5053858;28;20025;-79
2021/07/31 10:24:25;;;;;;;15.15;8.13;;;973.20;1024.00;;;;;;5051753;28;20029;-78
2021/07/31 10:27:16;;;;;;;10.35;7.70;;;972.90;1024.00;;;;;;5051595;28;20440;-77
2021/07/31 10:30:00;;;;;;;13.18;8.77;;;948.10;1024.00;;;;;;5049897;28;20032;-75
2021/07/31 10:32:35;;;;;;;12.10;7.93;;;972.90;1075.20;;;;;;5038152;28;20040;-77
2021/07/31 10:35:23;;;;;;;9.45;7.50;;;973.10;1100.80;;;;;;5042502;28;20028;-77
2021/07/31 10:37:49;;;;;;;8.13;6.35;;;973.20;1075.20;;;;;;5036546;28;20546;-76
2021/07/31 10:40:32;;;;;;;7.38;5.50;;;973.30;998.40;;;;;;5038627;28;20139;-77
2021/07/31 10:42:58;;;;;;;9.20;4.97;;;973.30;947.20;;;;;;5036968;28;20485;-76
2021/07/31 10:45:25;;;;;;;8.23;5.97;;;973.40;947.20;;;;;;5041548;28;20028;-77
2021/07/31 10:47:59;;;;;;;9.82;6.47;;;973.30;972.80;;;;;;5041991;28;20144;-77
2021/07/31 10:50:26;;;;;;;11.35;6.25;;;973.40;972.80;;;;;;5041918;28;20198;-76
2021/07/31 10:53:10;;;;;;;7.30;6.35;;;973.60;947.20;;;;;;5037589;28;20032;-78
2021/07/31 10:55:36;;;;;;;6.95;5.03;;;973.70;921.60;;;;;;5040571;28;20135;-75
2021/07/31 10:58:01;;;;;;;11.65;5.70;;;973.60;896.00;;;;;;5041630;28;20055;-78
2021/07/31 11:00:34;;;;;;;6.63;4.85;;;973.60;896.00;;;;;;5038384;28;20064;-77
2021/07/31 11:03:23;;;;;;;7.63;5.30;;;973.60;870.40;;;;;;5049778;28;20076;-79
2021/07/31 11:05:49;;;;;;;9.38;5.20;;;973.60;870.40;;;;;;5032564;28;20025;-78
2021/07/31 11:08:16;;;;;;;9.85;5.60;;;973.60;896.00;;;;;;5032906;28;20026;-78
2021/07/31 11:10:50;;;;;;;7.55;4.70;;;973.70;870.40;;;;;;5033025;28;20018;-76
2021/07/31 11:13:19;;;;;;;9.23;5.63;;;998.40;921.60;;;;;;5037936;28;20107;-79
2021/07/31 11:16:03;;;;;;;8.68;6.15;;;998.50;921.60;;;;;;5041590;28;20037;-78
2021/07/31 11:18:35;;;;;;;7.60;6.32;;;998.80;972.80;;;;;;5041903;28;20017;-78
2021/07/31 11:21:14;;;;;;;7.00;5.32;;;998.80;921.60;;;;;;5040449;28;20034;-76
2021/07/31 11:23:56;;;;;;;7.03;5.45;;;999.10;947.20;;;;;;5036879;28;20053;-77
2021/07/31 11:26:34;;;;;;;10.82;6.53;;;999.10;896.00;;;;;;5037181;28;20038;-78
2021/07/31 11:29:01;;;;;;;6.43;5.30;;;999.00;921.60;;;;;;5036810;28;20022;-78
2021/07/31 11:31:27;;;;;;;4.65;4.05;;;998.90;870.40;;;;;;5035546;28;20215;-77
2021/07/31 11:34:08;;;;;;;8.57;5.15;;;999.00;844.80;;;;;;5036800;28;20418;-78
2021/07/31 11:36:38;;;;;;;8.90;4.82;;;999.20;844.80;;;;;;5036205;28;20097;-78
2021/07/31 11:39:08;;;;;;;5.93;4.47;;;999.20;793.60;;;;;;5036586;28;20071;-76
2021/07/31 11:41:42;;;;;;;8.27;5.35;;;999.30;819.20;;;;;;5036719;28;20158;-76
2021/07/31 11:44:10;;;;;;;5.85;4.45;;;1024.10;844.80;;;;;;5035591;28;20374;-77
2021/07/31 11:46:46;;;;;;;5.53;4.75;;;1024.30;844.80;;;;;;5036524;28;20018;-77
2021/07/31 11:49:25;;;;;;;7.15;5.70;;;1024.50;870.40;;;;;;5036754;28;20022;-76
2021/07/31 11:51:52;;;;;;;6.25;4.85;;;1024.70;870.40;;;;;;5036651;28;20032;-78
2021/07/31 11:54:19;;;;;;;7.07;4.82;;;1024.70;768.00;;;;;;5036487;28;20022;-76
2021/07/31 11:56:46;;;;;;;8.40;4.65;;;1024.70;768.00;;;;;;5036505;28;20492;-75
2021/07/31 11:59:13;;;;;;;8.20;4.97;;;1024.70;742.40;;;;;;5034700;28;20052;-75
2021/07/31 12:01:46;;;;;;;7.03;4.78;;;1024.80;768.00;;;;;;5036212;28;20052;-75
2021/07/31 12:04:11;;;;;;;7.25;4.93;;;1024.80;793.60;;;;;;5036273;28;20048;-74
2021/07/31 12:06:41;;;;;;;8.48;5.63;;;1024.90;819.20;;;;;;5036198;28;20470;-74